sensor_id;sensor_type;location;lat;lon;timestamp;temperature;humidity
13970;DHT22;7057;49.984;8.404;2023-03-02T00:00:45;3.10;99.90
13970;DHT22;7057;49.984;8.404;2023-03-02T00:03:15;3.00;99.90
13970;DHT22;7057;49.984;8.404;2023-03-02T00:05:44;3.00;99.90
13970;DHT22;7057;49.984;8.404;2023-03-02T00:08:13;3.10;99.90
13970;DHT22;7057;49.984;8.404;2023-03-02T00:10:41;3.10;99.90
13970;DHT22;7057;49.984;8.404;2023-03-02T00:13:09;3.10;99.90
13970;DHT22;7057;49.984;8.404;2023-03-02T00:15:36;3.10;99.90
13970;DHT22;7057;49.984;8.404;2023-03-02T00:18:03;3.10;99.90
13970;DHT22;7057;49.984;8.404;2023-03-02T00:20:32;3.10;99.90
13970;DHT22;7057;49.984;8.404;2023-03-02T00:23:00;3.00;99.90
13970;DHT22;7057;49.984;8.404;2023-03-02T00:25:27;3.00;99.90
13970;DHT22;7057;49.984;8.404;2023-03-02T00:27:55;2.90;99.90
13970;DHT22;7057;49.984;8.404;2023-03-02T00:30:22;3.00;99.90
13970;DHT22;7057;49.984;8.404;2023-03-02T00:32:50;3.00;99.90
13970;DHT22;7057;49.984;8.404;2023-03-02T00:35:17;3.00;99.90
13970;DHT22;7057;49.984;8.404;2023-03-02T00:37:46;2.90;99.90
13970;DHT22;7057;49.984;8.404;2023-03-02T00:40:13;2.90;99.90
13970;DHT22;7057;49.984;8.404;2023-03-02T00:42:41;2.90;99.90
13970;DHT22;7057;49.984;8.404;2023-03-02T00:45:08;2.90;99.90
13970;DHT22;7057;49.984;8.404;2023-03-02T00:47:36;3.00;99.90
13970;DHT22;7057;49.984;8.404;2023-03-02T00:50:04;2.90;99.90
13970;DHT22;7057;49.984;8.404;2023-03-02T00:52:32;3.00;99.90
13970;DHT22;7057;49.984;8.404;2023-03-02T00:55:01;2.90;99.90
13970;DHT22;7057;49.984;8.404;2023-03-02T00:57:28;2.90;99.90
13970;DHT22;7057;49.984;8.404;2023-03-02T00:59:55;2.90;99.90
13970;DHT22;7057;49.984;8.404;2023-03-02T01:02:22;2.90;99.90
13970;DHT22;7057;49.984;8.404;2023-03-02T01:04:49;2.80;99.90
13970;DHT22;7057;49.984;8.404;2023-03-02T01:07:19;2.80;99.90
13970;DHT22;7057;49.984;8.404;2023-03-02T01:09:47;2.80;99.90
13970;DHT22;7057;49.984;8.404;2023-03-02T01:12:15;2.80;99.90
13970;DHT22;7057;49.984;8.404;2023-03-02T01:14:44;2.80;99.90
13970;DHT22;7057;49.984;8.404;2023-03-02T01:17:12;2.70;99.90
13970;DHT22;7057;49.984;8.404;2023-03-02T01:19:40;2.80;99.90
13970;DHT22;7057;49.984;8.404;2023-03-02T01:22:08;2.80;99.90
13970;DHT22;7057;49.984;8.404;2023-03-02T01:24:35;2.80;99.90
13970;DHT22;7057;49.984;8.404;2023-03-02T01:27:02;2.80;99.90
13970;DHT22;7057;49.984;8.404;2023-03-02T01:29:31;2.80;99.90
13970;DHT22;7057;49.984;8.404;2023-03-02T01:31:58;2.80;99.90
13970;DHT22;7057;49.984;8.404;2023-03-02T01:34:25;2.80;99.90
13970;DHT22;7057;49.984;8.404;2023-03-02T01:36:53;2.80;99.90
13970;DHT22;7057;49.984;8.404;2023-03-02T01:39:20;2.80;99.90
13970;DHT22;7057;49.984;8.404;2023-03-02T01:41:50;2.80;99.90
13970;DHT22;7057;49.984;8.404;2023-03-02T01:44:36;2.80;99.90
13970;DHT22;7057;49.984;8.404;2023-03-02T01:47:08;2.80;99.90
13970;DHT22;7057;49.984;8.404;2023-03-02T01:49:43;2.90;99.90
13970;DHT22;7057;49.984;8.404;2023-03-02T01:52:12;2.80;99.90
13970;DHT22;7057;49.984;8.404;2023-03-02T01:54:41;2.80;99.90
13970;DHT22;7057;49.984;8.404;2023-03-02T01:57:10;2.80;99.90
13970;DHT22;7057;49.984;8.404;2023-03-02T01:59:40;2.80;99.90
13970;DHT22;7057;49.984;8.404;2023-03-02T02:02:09;2.80;99.90
13970;DHT22;7057;49.984;8.404;2023-03-02T02:04:39;2.80;99.90
13970;DHT22;7057;49.984;8.404;2023-03-02T02:07:08;2.80;99.90
13970;DHT22;7057;49.984;8.404;2023-03-02T02:09:38;2.70;99.90
13970;DHT22;7057;49.984;8.404;2023-03-02T02:12:05;2.70;99.90
13970;DHT22;7057;49.984;8.404;2023-03-02T02:14:33;2.60;99.90
13970;DHT22;7057;49.984;8.404;2023-03-02T02:17:01;2.60;99.90
13970;DHT22;7057;49.984;8.404;2023-03-02T02:19:37;2.60;99.90
13970;DHT22;7057;49.984;8.404;2023-03-02T02:22:07;2.50;99.90
13970;DHT22;7057;49.984;8.404;2023-03-02T02:24:39;2.60;99.90
13970;DHT22;7057;49.984;8.404;2023-03-02T02:27:10;2.60;99.90
13970;DHT22;7057;49.984;8.404;2023-03-02T02:29:42;2.60;99.90
13970;DHT22;7057;49.984;8.404;2023-03-02T02:32:14;2.60;99.90
13970;DHT22;7057;49.984;8.404;2023-03-02T02:34:46;2.50;99.90
13970;DHT22;7057;49.984;8.404;2023-03-02T02:37:19;2.60;99.90
13970;DHT22;7057;49.984;8.404;2023-03-02T02:39:48;2.60;99.90
13970;DHT22;7057;49.984;8.404;2023-03-02T02:42:19;2.50;99.90
13970;DHT22;7057;49.984;8.404;2023-03-02T02:44:47;2.50;99.90
13970;DHT22;7057;49.984;8.404;2023-03-02T02:47:16;2.60;99.90
13970;DHT22;7057;49.984;8.404;2023-03-02T02:49:46;2.50;99.90
13970;DHT22;7057;49.984;8.404;2023-03-02T02:52:16;2.60;99.90
13970;DHT22;7057;49.984;8.404;2023-03-02T02:54:46;2.40;99.90
13970;DHT22;7057;49.984;8.404;2023-03-02T02:57:16;2.40;99.90
13970;DHT22;7057;49.984;8.404;2023-03-02T02:59:46;2.30;99.90
13970;DHT22;7057;49.984;8.404;2023-03-02T03:02:17;2.30;99.90
13970;DHT22;7057;49.984;8.404;2023-03-02T03:04:45;2.30;99.90
13970;DHT22;7057;49.984;8.404;2023-03-02T03:07:17;2.20;99.90
13970;DHT22;7057;49.984;8.404;2023-03-02T03:09:46;2.10;99.90
13970;DHT22;7057;49.984;8.404;2023-03-02T03:12:18;2.00;99.90
13970;DHT22;7057;49.984;8.404;2023-03-02T03:14:47;2.00;99.90
13970;DHT22;7057;49.984;8.404;2023-03-02T03:17:14;2.00;99.90
13970;DHT22;7057;49.984;8.404;2023-03-02T03:19:43;1.90;99.90
13970;DHT22;7057;49.984;8.404;2023-03-02T03:22:13;1.90;99.90
13970;DHT22;7057;49.984;8.404;2023-03-02T03:24:42;1.90;99.90
13970;DHT22;7057;49.984;8.404;2023-03-02T03:27:12;2.00;99.90
13970;DHT22;7057;49.984;8.404;2023-03-02T03:29:42;1.90;99.90
13970;DHT22;7057;49.984;8.404;2023-03-02T03:32:10;1.90;99.90
13970;DHT22;7057;49.984;8.404;2023-03-02T03:34:38;1.90;99.90
13970;DHT22;7057;49.984;8.404;2023-03-02T03:37:06;1.90;99.90
13970;DHT22;7057;49.984;8.404;2023-03-02T03:39:34;1.70;99.90
13970;DHT22;7057;49.984;8.404;2023-03-02T03:42:02;1.70;99.90
13970;DHT22;7057;49.984;8.404;2023-03-02T03:44:29;1.80;99.90
13970;DHT22;7057;49.984;8.404;2023-03-02T03:46:58;1.80;99.90
13970;DHT22;7057;49.984;8.404;2023-03-02T03:49:25;1.80;99.90
13970;DHT22;7057;49.984;8.404;2023-03-02T03:51:53;1.80;99.90
13970;DHT22;7057;49.984;8.404;2023-03-02T03:54:20;1.80;99.90
13970;DHT22;7057;49.984;8.404;2023-03-02T03:56:49;1.70;99.90
13970;DHT22;7057;49.984;8.404;2023-03-02T03:59:18;1.80;99.90
13970;DHT22;7057;49.984;8.404;2023-03-02T04:01:48;1.70;99.90
13970;DHT22;7057;49.984;8.404;2023-03-02T04:04:19;1.70;99.90
13970;DHT22;7057;49.984;8.404;2023-03-02T04:06:47;1.80;99.90
13970;DHT22;7057;49.984;8.404;2023-03-02T04:09:14;1.80;99.90
13970;DHT22;7057;49.984;8.404;2023-03-02T04:11:45;1.80;99.90
13970;DHT22;7057;49.984;8.404;2023-03-02T04:14:13;1.80;99.90
13970;DHT22;7057;49.984;8.404;2023-03-02T04:16:41;1.80;99.90
13970;DHT22;7057;49.984;8.404;2023-03-02T04:19:08;1.80;99.90
13970;DHT22;7057;49.984;8.404;2023-03-02T04:21:38;1.80;99.90
13970;DHT22;7057;49.984;8.404;2023-03-02T04:24:06;1.80;99.90
13970;DHT22;7057;49.984;8.404;2023-03-02T04:26:34;1.90;99.90
13970;DHT22;7057;49.984;8.404;2023-03-02T04:29:02;1.90;99.90
13970;DHT22;7057;49.984;8.404;2023-03-02T04:31:29;1.80;99.90
13970;DHT22;7057;49.984;8.404;2023-03-02T04:33:57;1.80;99.90
13970;DHT22;7057;49.984;8.404;2023-03-02T04:36:25;1.90;99.90
13970;DHT22;7057;49.984;8.404;2023-03-02T04:38:53;1.90;99.90
13970;DHT22;7057;49.984;8.404;2023-03-02T04:41:21;1.90;99.90
13970;DHT22;7057;49.984;8.404;2023-03-02T04:43:48;1.90;99.90
13970;DHT22;7057;49.984;8.404;2023-03-02T04:46:19;1.90;99.90
13970;DHT22;7057;49.984;8.404;2023-03-02T04:48:48;1.90;99.90
13970;DHT22;7057;49.984;8.404;2023-03-02T04:51:16;1.80;99.90
13970;DHT22;7057;49.984;8.404;2023-03-02T04:53:49;1.90;99.90
13970;DHT22;7057;49.984;8.404;2023-03-02T04:56:17;1.90;99.90
13970;DHT22;7057;49.984;8.404;2023-03-02T04:58:45;2.00;99.90
13970;DHT22;7057;49.984;8.404;2023-03-02T05:01:13;2.00;99.90
13970;DHT22;7057;49.984;8.404;2023-03-02T05:03:41;2.00;99.90
13970;DHT22;7057;49.984;8.404;2023-03-02T05:06:08;2.10;99.90
13970;DHT22;7057;49.984;8.404;2023-03-02T05:08:36;2.00;99.90
13970;DHT22;7057;49.984;8.404;2023-03-02T05:11:04;2.10;99.90
13970;DHT22;7057;49.984;8.404;2023-03-02T05:13:34;2.10;99.90
13970;DHT22;7057;49.984;8.404;2023-03-02T05:19:24;1.90;99.90
13970;DHT22;7057;49.984;8.404;2023-03-02T05:21:51;1.90;99.90
13970;DHT22;7057;49.984;8.404;2023-03-02T05:24:18;1.90;99.90
13970;DHT22;7057;49.984;8.404;2023-03-02T05:26:45;1.90;99.90
13970;DHT22;7057;49.984;8.404;2023-03-02T05:29:13;1.90;99.90
13970;DHT22;7057;49.984;8.404;2023-03-02T05:31:42;1.90;99.90
13970;DHT22;7057;49.984;8.404;2023-03-02T05:34:12;1.90;99.90
13970;DHT22;7057;49.984;8.404;2023-03-02T05:36:41;1.80;99.90
13970;DHT22;7057;49.984;8.404;2023-03-02T05:39:09;1.80;99.90
13970;DHT22;7057;49.984;8.404;2023-03-02T05:41:36;1.80;99.90
13970;DHT22;7057;49.984;8.404;2023-03-02T05:44:04;1.80;99.90
13970;DHT22;7057;49.984;8.404;2023-03-02T05:46:36;1.70;99.90
13970;DHT22;7057;49.984;8.404;2023-03-02T05:49:03;1.70;99.90
13970;DHT22;7057;49.984;8.404;2023-03-02T05:51:30;1.80;99.90
13970;DHT22;7057;49.984;8.404;2023-03-02T05:53:57;1.80;99.90
13970;DHT22;7057;49.984;8.404;2023-03-02T05:56:24;1.80;99.90
13970;DHT22;7057;49.984;8.404;2023-03-02T05:58:52;1.80;99.90
13970;DHT22;7057;49.984;8.404;2023-03-02T06:01:19;1.70;99.90
13970;DHT22;7057;49.984;8.404;2023-03-02T06:03:47;1.70;99.90
13970;DHT22;7057;49.984;8.404;2023-03-02T06:06:15;1.70;99.90
13970;DHT22;7057;49.984;8.404;2023-03-02T06:08:43;1.80;99.90
13970;DHT22;7057;49.984;8.404;2023-03-02T06:11:10;1.80;99.90
13970;DHT22;7057;49.984;8.404;2023-03-02T06:13:38;1.80;99.90
13970;DHT22;7057;49.984;8.404;2023-03-02T06:16:06;1.80;99.90
13970;DHT22;7057;49.984;8.404;2023-03-02T06:18:33;1.80;99.90
13970;DHT22;7057;49.984;8.404;2023-03-02T06:21:03;1.80;99.90
13970;DHT22;7057;49.984;8.404;2023-03-02T06:23:30;1.80;99.90
13970;DHT22;7057;49.984;8.404;2023-03-02T06:25:57;1.80;99.90
13970;DHT22;7057;49.984;8.404;2023-03-02T06:28:25;1.80;99.90
13970;DHT22;7057;49.984;8.404;2023-03-02T06:30:52;1.80;99.90
13970;DHT22;7057;49.984;8.404;2023-03-02T06:33:19;1.80;99.90
13970;DHT22;7057;49.984;8.404;2023-03-02T06:35:47;1.90;99.90
13970;DHT22;7057;49.984;8.404;2023-03-02T06:38:16;1.90;99.90
13970;DHT22;7057;49.984;8.404;2023-03-02T06:40:43;2.00;99.90
13970;DHT22;7057;49.984;8.404;2023-03-02T06:43:11;1.90;99.90
13970;DHT22;7057;49.984;8.404;2023-03-02T06:45:38;2.00;99.90
13970;DHT22;7057;49.984;8.404;2023-03-02T06:48:06;2.10;99.90
13970;DHT22;7057;49.984;8.404;2023-03-02T06:50:33;2.10;99.90
13970;DHT22;7057;49.984;8.404;2023-03-02T06:53:01;2.20;99.90
13970;DHT22;7057;49.984;8.404;2023-03-02T06:55:29;2.20;99.90
13970;DHT22;7057;49.984;8.404;2023-03-02T06:57:56;2.20;99.90
13970;DHT22;7057;49.984;8.404;2023-03-02T07:00:24;2.30;99.90
13970;DHT22;7057;49.984;8.404;2023-03-02T07:02:53;2.40;99.90
13970;DHT22;7057;49.984;8.404;2023-03-02T07:05:21;2.40;99.90
13970;DHT22;7057;49.984;8.404;2023-03-02T07:07:49;2.40;99.90
13970;DHT22;7057;49.984;8.404;2023-03-02T07:10:16;2.40;99.90
13970;DHT22;7057;49.984;8.404;2023-03-02T07:12:45;2.50;99.90
13970;DHT22;7057;49.984;8.404;2023-03-02T07:15:12;2.70;99.90
13970;DHT22;7057;49.984;8.404;2023-03-02T07:17:41;2.70;99.90
13970;DHT22;7057;49.984;8.404;2023-03-02T07:20:10;2.80;99.90
13970;DHT22;7057;49.984;8.404;2023-03-02T07:22:37;2.80;99.90
13970;DHT22;7057;49.984;8.404;2023-03-02T07:25:05;2.80;99.90
13970;DHT22;7057;49.984;8.404;2023-03-02T07:27:33;2.90;99.90
13970;DHT22;7057;49.984;8.404;2023-03-02T07:30:02;2.90;99.90
13970;DHT22;7057;49.984;8.404;2023-03-02T07:32:29;3.00;99.90
13970;DHT22;7057;49.984;8.404;2023-03-02T07:34:56;3.10;99.90
13970;DHT22;7057;49.984;8.404;2023-03-02T07:37:23;3.10;99.90
13970;DHT22;7057;49.984;8.404;2023-03-02T07:39:50;3.30;99.90
13970;DHT22;7057;49.984;8.404;2023-03-02T07:42:17;3.40;99.90
13970;DHT22;7057;49.984;8.404;2023-03-02T07:44:44;3.40;99.90
13970;DHT22;7057;49.984;8.404;2023-03-02T07:47:13;3.70;99.90
13970;DHT22;7057;49.984;8.404;2023-03-02T07:49:40;3.60;99.90
13970;DHT22;7057;49.984;8.404;2023-03-02T07:52:07;3.70;99.90
13970;DHT22;7057;49.984;8.404;2023-03-02T07:54:35;3.70;99.90
13970;DHT22;7057;49.984;8.404;2023-03-02T07:57:02;3.80;99.90
13970;DHT22;7057;49.984;8.404;2023-03-02T07:59:30;3.90;99.90
13970;DHT22;7057;49.984;8.404;2023-03-02T08:01:57;4.00;99.90
13970;DHT22;7057;49.984;8.404;2023-03-02T08:04:26;4.10;99.90
13970;DHT22;7057;49.984;8.404;2023-03-02T08:06:53;4.20;99.90
13970;DHT22;7057;49.984;8.404;2023-03-02T08:09:20;4.30;99.90
13970;DHT22;7057;49.984;8.404;2023-03-02T08:11:47;4.40;99.90
13970;DHT22;7057;49.984;8.404;2023-03-02T08:14:14;4.50;99.90
13970;DHT22;7057;49.984;8.404;2023-03-02T08:16:41;4.60;99.90
13970;DHT22;7057;49.984;8.404;2023-03-02T08:19:08;4.60;99.90
13970;DHT22;7057;49.984;8.404;2023-03-02T08:21:37;4.60;99.90
13970;DHT22;7057;49.984;8.404;2023-03-02T08:24:05;4.70;99.90
13970;DHT22;7057;49.984;8.404;2023-03-02T08:26:32;4.80;99.90
13970;DHT22;7057;49.984;8.404;2023-03-02T08:28:59;4.80;99.90
13970;DHT22;7057;49.984;8.404;2023-03-02T08:31:26;5.00;99.90
13970;DHT22;7057;49.984;8.404;2023-03-02T08:33:54;5.10;99.90
13970;DHT22;7057;49.984;8.404;2023-03-02T08:36:21;5.20;99.90
13970;DHT22;7057;49.984;8.404;2023-03-02T08:38:49;5.30;99.90
13970;DHT22;7057;49.984;8.404;2023-03-02T08:41:18;5.40;99.90
13970;DHT22;7057;49.984;8.404;2023-03-02T08:43:47;5.40;99.90
13970;DHT22;7057;49.984;8.404;2023-03-02T08:46:16;5.60;99.90
13970;DHT22;7057;49.984;8.404;2023-03-02T08:48:44;5.70;99.90
13970;DHT22;7057;49.984;8.404;2023-03-02T08:51:14;5.70;99.90
13970;DHT22;7057;49.984;8.404;2023-03-02T08:53:44;5.70;99.90
13970;DHT22;7057;49.984;8.404;2023-03-02T08:56:17;5.70;99.90
13970;DHT22;7057;49.984;8.404;2023-03-02T08:58:45;5.80;99.90
13970;DHT22;7057;49.984;8.404;2023-03-02T09:01:13;5.90;99.90
13970;DHT22;7057;49.984;8.404;2023-03-02T09:03:41;6.00;99.90
13970;DHT22;7057;49.984;8.404;2023-03-02T09:06:08;6.10;99.90
13970;DHT22;7057;49.984;8.404;2023-03-02T09:08:35;6.20;99.90
13970;DHT22;7057;49.984;8.404;2023-03-02T09:11:02;6.30;99.90
13970;DHT22;7057;49.984;8.404;2023-03-02T09:13:31;6.30;99.90
13970;DHT22;7057;49.984;8.404;2023-03-02T09:15:58;6.40;99.90
13970;DHT22;7057;49.984;8.404;2023-03-02T09:18:27;6.50;99.90
13970;DHT22;7057;49.984;8.404;2023-03-02T09:20:55;6.60;99.90
13970;DHT22;7057;49.984;8.404;2023-03-02T09:23:23;6.60;99.90
13970;DHT22;7057;49.984;8.404;2023-03-02T09:25:52;6.60;99.90
13970;DHT22;7057;49.984;8.404;2023-03-02T09:28:19;6.70;99.90
13970;DHT22;7057;49.984;8.404;2023-03-02T09:30:49;6.80;99.90
13970;DHT22;7057;49.984;8.404;2023-03-02T09:33:17;6.80;99.90
13970;DHT22;7057;49.984;8.404;2023-03-02T09:35:45;6.80;99.90
13970;DHT22;7057;49.984;8.404;2023-03-02T09:38:13;6.80;99.90
13970;DHT22;7057;49.984;8.404;2023-03-02T09:40:55;6.90;99.90
13970;DHT22;7057;49.984;8.404;2023-03-02T09:43:34;7.00;99.90
13970;DHT22;7057;49.984;8.404;2023-03-02T09:46:14;7.00;99.90
13970;DHT22;7057;49.984;8.404;2023-03-02T09:48:48;7.00;99.90
13970;DHT22;7057;49.984;8.404;2023-03-02T09:51:27;7.20;99.90
13970;DHT22;7057;49.984;8.404;2023-03-02T09:54:02;7.30;99.90
13970;DHT22;7057;49.984;8.404;2023-03-02T09:56:30;7.30;99.90
13970;DHT22;7057;49.984;8.404;2023-03-02T09:59:01;7.40;99.90
13970;DHT22;7057;49.984;8.404;2023-03-02T10:01:35;7.40;99.90
13970;DHT22;7057;49.984;8.404;2023-03-02T10:04:12;7.50;99.90
13970;DHT22;7057;49.984;8.404;2023-03-02T10:06:40;7.60;99.90
13970;DHT22;7057;49.984;8.404;2023-03-02T10:09:08;7.70;99.90
13970;DHT22;7057;49.984;8.404;2023-03-02T10:11:42;7.80;99.90
13970;DHT22;7057;49.984;8.404;2023-03-02T10:14:16;7.90;99.90
13970;DHT22;7057;49.984;8.404;2023-03-02T10:16:53;8.00;99.90
13970;DHT22;7057;49.984;8.404;2023-03-02T10:19:26;8.10;99.90
13970;DHT22;7057;49.984;8.404;2023-03-02T10:22:00;8.20;99.90
13970;DHT22;7057;49.984;8.404;2023-03-02T10:24:34;8.30;99.90
13970;DHT22;7057;49.984;8.404;2023-03-02T10:27:13;8.30;99.90
13970;DHT22;7057;49.984;8.404;2023-03-02T10:29:46;8.30;99.90
13970;DHT22;7057;49.984;8.404;2023-03-02T10:32:19;8.30;99.90
13970;DHT22;7057;49.984;8.404;2023-03-02T10:34:46;8.30;99.90
13970;DHT22;7057;49.984;8.404;2023-03-02T10:37:17;8.50;99.90
13970;DHT22;7057;49.984;8.404;2023-03-02T10:39:44;8.60;99.90
13970;DHT22;7057;49.984;8.404;2023-03-02T10:42:14;8.60;99.90
13970;DHT22;7057;49.984;8.404;2023-03-02T10:44:46;8.60;99.90
13970;DHT22;7057;49.984;8.404;2023-03-02T10:47:23;8.80;99.90
13970;DHT22;7057;49.984;8.404;2023-03-02T10:49:52;8.70;99.90
13970;DHT22;7057;49.984;8.404;2023-03-02T10:52:21;8.80;99.90
13970;DHT22;7057;49.984;8.404;2023-03-02T10:54:48;8.90;99.90
13970;DHT22;7057;49.984;8.404;2023-03-02T10:57:29;9.00;99.90
13970;DHT22;7057;49.984;8.404;2023-03-02T10:59:59;9.00;99.90
13970;DHT22;7057;49.984;8.404;2023-03-02T11:02:32;9.20;99.90
13970;DHT22;7057;49.984;8.404;2023-03-02T11:05:25;9.40;99.90
13970;DHT22;7057;49.984;8.404;2023-03-02T11:07:54;9.50;99.90
13970;DHT22;7057;49.984;8.404;2023-03-02T11:10:25;9.60;99.90
13970;DHT22;7057;49.984;8.404;2023-03-02T11:12:53;9.60;99.90
13970;DHT22;7057;49.984;8.404;2023-03-02T11:15:24;9.50;99.90
13970;DHT22;7057;49.984;8.404;2023-03-02T11:18:00;9.60;99.90
13970;DHT22;7057;49.984;8.404;2023-03-02T11:20:30;9.70;99.90
13970;DHT22;7057;49.984;8.404;2023-03-02T11:23:13;9.90;99.90
13970;DHT22;7057;49.984;8.404;2023-03-02T11:25:45;9.80;99.90
13970;DHT22;7057;49.984;8.404;2023-03-02T11:28:21;9.80;99.90
13970;DHT22;7057;49.984;8.404;2023-03-02T11:30:52;9.80;99.90
13970;DHT22;7057;49.984;8.404;2023-03-02T11:33:28;9.80;99.90
13970;DHT22;7057;49.984;8.404;2023-03-02T11:36:04;9.80;99.90
13970;DHT22;7057;49.984;8.404;2023-03-02T11:38:40;9.90;99.90
13970;DHT22;7057;49.984;8.404;2023-03-02T11:41:16;10.10;99.90
13970;DHT22;7057;49.984;8.404;2023-03-02T11:43:51;10.20;99.90
13970;DHT22;7057;49.984;8.404;2023-03-02T11:46:23;10.30;99.90
13970;DHT22;7057;49.984;8.404;2023-03-02T11:48:54;10.30;99.90
13970;DHT22;7057;49.984;8.404;2023-03-02T11:51:24;10.30;99.90
13970;DHT22;7057;49.984;8.404;2023-03-02T11:53:56;10.40;99.90
13970;DHT22;7057;49.984;8.404;2023-03-02T11:56:24;10.30;99.90
13970;DHT22;7057;49.984;8.404;2023-03-02T11:58:54;10.40;99.90
13970;DHT22;7057;49.984;8.404;2023-03-02T12:01:24;10.40;99.90
13970;DHT22;7057;49.984;8.404;2023-03-02T12:04:04;10.50;99.90
13970;DHT22;7057;49.984;8.404;2023-03-02T12:06:37;10.70;99.90
13970;DHT22;7057;49.984;8.404;2023-03-02T12:09:26;10.80;99.90
13970;DHT22;7057;49.984;8.404;2023-03-02T12:11:58;10.90;99.90
13970;DHT22;7057;49.984;8.404;2023-03-02T12:14:34;11.00;99.90
13970;DHT22;7057;49.984;8.404;2023-03-02T12:17:05;11.00;99.90
13970;DHT22;7057;49.984;8.404;2023-03-02T12:19:41;10.90;99.90
13970;DHT22;7057;49.984;8.404;2023-03-02T12:22:11;10.90;99.90
13970;DHT22;7057;49.984;8.404;2023-03-02T12:24:41;10.90;99.90
13970;DHT22;7057;49.984;8.404;2023-03-02T12:27:23;10.90;99.90
13970;DHT22;7057;49.984;8.404;2023-03-02T12:29:56;11.00;99.90
13970;DHT22;7057;49.984;8.404;2023-03-02T12:32:34;11.10;99.90
13970;DHT22;7057;49.984;8.404;2023-03-02T12:35:11;11.10;99.90
13970;DHT22;7057;49.984;8.404;2023-03-02T12:37:43;11.20;99.90
13970;DHT22;7057;49.984;8.404;2023-03-02T12:40:31;11.20;99.90
13970;DHT22;7057;49.984;8.404;2023-03-02T12:43:18;11.30;99.90
13970;DHT22;7057;49.984;8.404;2023-03-02T12:48:42;11.30;99.90
13970;DHT22;7057;49.984;8.404;2023-03-02T12:51:16;11.40;99.90
13970;DHT22;7057;49.984;8.404;2023-03-02T12:53:44;11.40;99.90
13970;DHT22;7057;49.984;8.404;2023-03-02T12:56:20;11.50;99.90
13970;DHT22;7057;49.984;8.404;2023-03-02T12:58:48;11.50;99.90
13970;DHT22;7057;49.984;8.404;2023-03-02T13:01:20;11.60;99.90
13970;DHT22;7057;49.984;8.404;2023-03-02T13:03:48;11.60;99.90
13970;DHT22;7057;49.984;8.404;2023-03-02T13:06:17;11.70;99.90
13970;DHT22;7057;49.984;8.404;2023-03-02T13:08:46;11.80;99.90
13970;DHT22;7057;49.984;8.404;2023-03-02T13:11:20;11.90;99.90
13970;DHT22;7057;49.984;8.404;2023-03-02T13:13:48;11.80;99.90
13970;DHT22;7057;49.984;8.404;2023-03-02T13:16:21;11.80;99.90
13970;DHT22;7057;49.984;8.404;2023-03-02T13:18:49;11.80;99.90
13970;DHT22;7057;49.984;8.404;2023-03-02T13:21:21;11.80;99.90
13970;DHT22;7057;49.984;8.404;2023-03-02T13:23:50;11.90;99.90
13970;DHT22;7057;49.984;8.404;2023-03-02T13:26:25;12.00;99.90
13970;DHT22;7057;49.984;8.404;2023-03-02T13:29:04;11.90;99.90
13970;DHT22;7057;49.984;8.404;2023-03-02T13:31:32;11.90;99.90
13970;DHT22;7057;49.984;8.404;2023-03-02T13:33:59;11.90;99.90
13970;DHT22;7057;49.984;8.404;2023-03-02T13:36:32;11.90;99.90
13970;DHT22;7057;49.984;8.404;2023-03-02T13:39:01;12.00;99.90
13970;DHT22;7057;49.984;8.404;2023-03-02T13:41:31;12.00;99.90
13970;DHT22;7057;49.984;8.404;2023-03-02T13:44:10;12.10;99.90
13970;DHT22;7057;49.984;8.404;2023-03-02T13:46:38;12.20;99.90
13970;DHT22;7057;49.984;8.404;2023-03-02T13:49:06;12.30;99.90
13970;DHT22;7057;49.984;8.404;2023-03-02T13:51:38;12.40;99.90
13970;DHT22;7057;49.984;8.404;2023-03-02T13:54:13;12.30;99.90
13970;DHT22;7057;49.984;8.404;2023-03-02T13:56:43;12.40;99.90
13970;DHT22;7057;49.984;8.404;2023-03-02T13:59:12;12.40;99.90
13970;DHT22;7057;49.984;8.404;2023-03-02T14:01:40;12.40;99.90
13970;DHT22;7057;49.984;8.404;2023-03-02T14:04:10;12.40;99.90
13970;DHT22;7057;49.984;8.404;2023-03-02T14:06:39;12.50;99.90
13970;DHT22;7057;49.984;8.404;2023-03-02T14:09:06;12.50;99.90
13970;DHT22;7057;49.984;8.404;2023-03-02T14:11:35;12.60;99.90
13970;DHT22;7057;49.984;8.404;2023-03-02T14:14:04;12.60;99.90
13970;DHT22;7057;49.984;8.404;2023-03-02T14:16:32;12.60;99.90
13970;DHT22;7057;49.984;8.404;2023-03-02T14:19:01;12.60;99.90
13970;DHT22;7057;49.984;8.404;2023-03-02T14:21:28;12.60;99.90
13970;DHT22;7057;49.984;8.404;2023-03-02T14:23:57;12.70;99.90
13970;DHT22;7057;49.984;8.404;2023-03-02T14:26:30;12.70;99.90
13970;DHT22;7057;49.984;8.404;2023-03-02T14:28:58;12.60;99.90
13970;DHT22;7057;49.984;8.404;2023-03-02T14:31:26;12.50;99.90
13970;DHT22;7057;49.984;8.404;2023-03-02T14:33:53;12.40;99.90
13970;DHT22;7057;49.984;8.404;2023-03-02T14:36:26;12.40;99.90
13970;DHT22;7057;49.984;8.404;2023-03-02T14:38:56;12.50;99.90
13970;DHT22;7057;49.984;8.404;2023-03-02T14:41:27;12.50;99.90
13970;DHT22;7057;49.984;8.404;2023-03-02T14:43:54;12.50;99.90
13970;DHT22;7057;49.984;8.404;2023-03-02T14:46:21;12.50;99.90
13970;DHT22;7057;49.984;8.404;2023-03-02T14:48:48;12.60;99.90
13970;DHT22;7057;49.984;8.404;2023-03-02T14:51:20;12.70;99.90
13970;DHT22;7057;49.984;8.404;2023-03-02T14:53:50;12.70;99.90
13970;DHT22;7057;49.984;8.404;2023-03-02T14:56:20;12.70;99.90
13970;DHT22;7057;49.984;8.404;2023-03-02T14:58:48;12.70;99.90
13970;DHT22;7057;49.984;8.404;2023-03-02T15:01:16;12.80;99.90
13970;DHT22;7057;49.984;8.404;2023-03-02T15:03:44;12.90;99.90
13970;DHT22;7057;49.984;8.404;2023-03-02T15:06:24;12.90;99.90
13970;DHT22;7057;49.984;8.404;2023-03-02T15:08:52;12.90;99.90
13970;DHT22;7057;49.984;8.404;2023-03-02T15:11:20;12.80;99.90
13970;DHT22;7057;49.984;8.404;2023-03-02T15:13:48;12.80;99.90
13970;DHT22;7057;49.984;8.404;2023-03-02T15:16:15;12.70;99.90
13970;DHT22;7057;49.984;8.404;2023-03-02T15:18:42;12.70;99.90
13970;DHT22;7057;49.984;8.404;2023-03-02T15:21:14;12.70;99.90
13970;DHT22;7057;49.984;8.404;2023-03-02T15:23:42;12.80;99.90
13970;DHT22;7057;49.984;8.404;2023-03-02T15:26:10;12.80;99.90
13970;DHT22;7057;49.984;8.404;2023-03-02T15:28:40;12.70;99.90
13970;DHT22;7057;49.984;8.404;2023-03-02T15:31:09;12.60;99.90
13970;DHT22;7057;49.984;8.404;2023-03-02T15:33:36;12.50;99.90
13970;DHT22;7057;49.984;8.404;2023-03-02T15:36:05;12.50;99.90
13970;DHT22;7057;49.984;8.404;2023-03-02T15:38:33;12.40;99.90
13970;DHT22;7057;49.984;8.404;2023-03-02T15:41:03;12.50;99.90
13970;DHT22;7057;49.984;8.404;2023-03-02T15:43:31;12.50;99.90
13970;DHT22;7057;49.984;8.404;2023-03-02T15:45:59;12.50;99.90
13970;DHT22;7057;49.984;8.404;2023-03-02T15:48:27;12.50;99.90
13970;DHT22;7057;49.984;8.404;2023-03-02T15:50:55;12.50;99.90
13970;DHT22;7057;49.984;8.404;2023-03-02T15:53:23;12.60;99.90
13970;DHT22;7057;49.984;8.404;2023-03-02T15:55:50;12.60;99.90
13970;DHT22;7057;49.984;8.404;2023-03-02T15:58:17;12.50;99.90
13970;DHT22;7057;49.984;8.404;2023-03-02T16:00:46;12.50;99.90
13970;DHT22;7057;49.984;8.404;2023-03-02T16:03:15;12.50;99.90
13970;DHT22;7057;49.984;8.404;2023-03-02T16:05:44;12.40;99.90
13970;DHT22;7057;49.984;8.404;2023-03-02T16:08:11;12.40;99.90
13970;DHT22;7057;49.984;8.404;2023-03-02T16:10:38;12.30;99.90
13970;DHT22;7057;49.984;8.404;2023-03-02T16:13:08;12.20;99.90
13970;DHT22;7057;49.984;8.404;2023-03-02T16:15:36;12.10;99.90
13970;DHT22;7057;49.984;8.404;2023-03-02T16:18:05;12.10;99.90